82  °F
Temperature
61  °F
  Dewpoint
48  %
   Humidity
Temp | Dewpoint | Humidity
8  km/h
Wind Speed
5  mph
Wind Speed
4  kts
Wind Speed
190°
Due South

Wind Speed
Clear
Conditions
Pressure 1020.02 (hPa) - 30.12 (in)
Visibility 10.0 (mi) - 16.1 (km)

Current Conditions
KBED
Location 6km (3.2mi)
Metar :KBED 212151Z 19004KT 10SM CLR 28/16 A3012 RMK AO2 SLP212 T02830156
Sat 21st September 17:51 pm

Airport
  Metar Aviation API Data Provided by https://www.checkwx.com/ CSS/SVG/PHP scripts by weather34.com © 2015-2019